Time;durP1;ratioP1;P1;durP2;ratioP2;P2;SDS_P1;SDS_P2;PMS_P1;PMS_P2;Temp;Humidity;BMP_temperature;BMP_pressure;BME280_temperature;BME280_humidity;BME280_pressure;Samples;Min_cycle;Max_cycle;Signal;HPM_P1;HPM_P2
2021/09/12 00:02:12;;;;;;;3.25;1.63;;;;;23.70;101596.00;;;;5067243;28;20222;-77
2021/09/12 00:04:39;;;;;;;5.13;2.10;;;;;23.70;101603.00;;;;5052799;28;20206;-77
2021/09/12 00:07:06;;;;;;;4.22;1.55;;;;;23.70;101598.00;;;;5049337;28;20207;-77
2021/09/12 00:09:34;;;;;;;5.55;1.77;;;;;23.70;101605.00;;;;5047907;28;20196;-77
2021/09/12 00:12:02;;;;;;;6.10;2.28;;;;;23.70;101595.00;;;;5066322;28;20620;-77
2021/09/12 00:14:29;;;;;;;4.45;1.63;;;;;23.70;101598.00;;;;5063404;28;20199;-77
2021/09/12 00:16:56;;;;;;;3.08;1.60;;;;;23.70;101594.00;;;;5062795;28;20191;-77
2021/09/12 00:19:25;;;;;;;3.78;1.67;;;;;23.60;101590.00;;;;5048217;28;20202;-77
2021/09/12 00:21:52;;;;;;;7.40;2.20;;;;;23.60;101592.00;;;;5059658;28;20250;-77
2021/09/12 00:24:20;;;;;;;3.60;1.73;;;;;23.60;101586.00;;;;5048234;28;20188;-77
2021/09/12 00:26:47;;;;;;;1.60;1.20;;;;;23.60;101588.00;;;;5053784;28;20218;-77
2021/09/12 00:29:14;;;;;;;2.38;1.60;;;;;23.60;101577.00;;;;5048412;28;20223;-77
2021/09/12 00:31:42;;;;;;;3.70;1.35;;;;;23.60;101579.00;;;;5053052;28;20199;-77
2021/09/12 00:34:09;;;;;;;4.75;1.70;;;;;23.60;101584.00;;;;5052047;28;20203;-77
2021/09/12 00:36:38;;;;;;;2.30;1.42;;;;;23.60;101571.00;;;;5047932;28;20203;-77
2021/09/12 00:39:05;;;;;;;2.40;1.63;;;;;23.60;101577.00;;;;5055698;28;20239;-78
2021/09/12 00:41:36;;;;;;;2.78;1.63;;;;;23.50;101570.00;;;;5048005;28;20210;-77
2021/09/12 00:44:03;;;;;;;3.08;1.70;;;;;23.60;101569.00;;;;5048769;28;20291;-77
2021/09/12 00:46:31;;;;;;;3.92;1.70;;;;;23.50;101569.00;;;;5046788;28;20206;-77
2021/09/12 00:48:58;;;;;;;5.00;2.17;;;;;23.50;101570.00;;;;5048893;28;20200;-77
2021/09/12 00:51:25;;;;;;;4.82;1.55;;;;;23.50;101573.00;;;;5048226;28;20196;-78
2021/09/12 00:53:55;;;;;;;5.13;2.20;;;;;23.50;101564.00;;;;5054827;28;20210;-77
2021/09/12 00:56:23;;;;;;;2.78;1.83;;;;;23.50;101575.00;;;;5065094;28;20672;-77
2021/09/12 00:58:52;;;;;;;4.18;1.60;;;;;23.50;101564.00;;;;5064466;28;20206;-77
2021/09/12 01:01:19;;;;;;;3.65;1.90;;;;;23.40;101568.00;;;;5051402;28;20207;-77
2021/09/12 01:03:46;;;;;;;6.20;2.13;;;;;23.40;101570.00;;;;5067783;28;20225;-77
2021/09/12 01:06:14;;;;;;;5.68;2.33;;;;;23.40;101575.00;;;;5059447;28;20199;-78
2021/09/12 01:08:41;;;;;;;3.90;2.28;;;;;23.40;101581.00;;;;5050162;28;20203;-76
2021/09/12 01:11:11;;;;;;;3.35;1.95;;;;;23.40;101569.00;;;;5049402;28;20379;-76
2021/09/12 01:13:39;;;;;;;2.88;1.98;;;;;23.40;101571.00;;;;5052536;28;20204;-76
2021/09/12 01:16:12;;;;;;;6.13;2.22;;;;;23.30;101572.00;;;;5049053;28;20278;-76
2021/09/12 01:18:39;;;;;;;3.92;1.88;;;;;23.40;101576.00;;;;5057136;28;20618;-76
2021/09/12 01:21:10;;;;;;;6.72;2.00;;;;;23.30;101577.00;;;;5053882;28;20231;-76
2021/09/12 01:23:37;;;;;;;5.40;2.60;;;;;23.30;101576.00;;;;5062243;28;20215;-76
2021/09/12 01:26:06;;;;;;;4.78;2.20;;;;;23.30;101568.00;;;;5048917;28;20207;-77
2021/09/12 01:28:35;;;;;;;2.63;2.10;;;;;23.30;101565.00;;;;5052209;28;20223;-77
2021/09/12 01:31:02;;;;;;;3.17;1.95;;;;;23.20;101569.00;;;;5048031;28;20222;-77
2021/09/12 01:33:29;;;;;;;5.97;2.88;;;;;23.20;101571.00;;;;5061572;28;20202;-77
2021/09/12 01:35:57;;;;;;;3.85;2.13;;;;;23.20;101573.00;;;;5068363;28;20198;-77
2021/09/12 01:38:24;;;;;;;4.68;2.10;;;;;23.20;101583.00;;;;5064398;28;20591;-77
2021/09/12 01:40:51;;;;;;;2.20;1.73;;;;;23.10;101582.00;;;;5061395;28;20211;-76
2021/09/12 01:43:22;;;;;;;4.82;2.35;;;;;23.10;101582.00;;;;5062726;28;20215;-76
2021/09/12 01:45:49;;;;;;;3.78;2.22;;;;;23.10;101579.00;;;;5069552;28;20219;-77
2021/09/12 01:48:16;;;;;;;5.88;2.28;;;;;23.00;101587.00;;;;5063947;28;20203;-77
2021/09/12 01:50:44;;;;;;;3.40;1.90;;;;;23.00;101588.00;;;;5057244;28;20210;-76
2021/09/12 01:53:12;;;;;;;5.28;2.00;;;;;23.00;101583.00;;;;5057369;28;20188;-76
2021/09/12 01:55:39;;;;;;;2.53;1.90;;;;;22.90;101586.00;;;;5050651;28;20215;-76
2021/09/12 01:58:06;;;;;;;3.58;1.95;;;;;22.90;101584.00;;;;5051750;28;20206;-76
2021/09/12 02:00:35;;;;;;;3.83;1.88;;;;;22.80;101589.00;;;;5054707;28;20210;-76
2021/09/12 02:03:02;;;;;;;4.32;2.17;;;;;22.80;101583.00;;;;5070712;28;20231;-76
2021/09/12 02:05:29;;;;;;;3.58;2.03;;;;;22.80;101590.00;;;;5061221;28;20195;-76
2021/09/12 02:07:56;;;;;;;2.88;2.30;;;;;22.80;101583.00;;;;5051221;28;20223;-76
2021/09/12 02:10:26;;;;;;;3.25;2.40;;;;;22.70;101580.00;;;;5059104;28;20199;-76
2021/09/12 02:12:54;;;;;;;5.93;1.95;;;;;22.70;101587.00;;;;5065698;28;20223;-76
2021/09/12 02:15:21;;;;;;;5.72;2.00;;;;;22.70;101585.00;;;;5062533;28;20227;-76
2021/09/12 02:17:50;;;;;;;3.78;1.90;;;;;22.70;101587.00;;;;5050582;28;20207;-76
2021/09/12 02:20:17;;;;;;;3.83;2.25;;;;;22.60;101591.00;;;;5050370;28;20191;-76
2021/09/12 02:22:44;;;;;;;3.92;1.80;;;;;22.60;101593.00;;;;5051010;28;20242;-76
2021/09/12 02:25:12;;;;;;;5.97;2.55;;;;;22.60;101596.00;;;;5050497;28;20211;-76
2021/09/12 02:27:39;;;;;;;2.85;2.10;;;;;22.50;101597.00;;;;5060389;28;20218;-76
2021/09/12 02:30:08;;;;;;;7.03;2.60;;;;;22.50;101588.00;;;;5066741;28;20199;-77
2021/09/12 02:32:35;;;;;;;2.40;1.90;;;;;22.50;101588.00;;;;5049848;28;20203;-77
2021/09/12 02:35:05;;;;;;;3.70;1.88;;;;;22.40;101589.00;;;;5053476;28;20192;-77
2021/09/12 02:37:32;;;;;;;4.57;2.10;;;;;22.40;101593.00;;;;5049377;28;20619;-76
2021/09/12 02:39:59;;;;;;;5.88;2.08;;;;;22.40;101589.00;;;;5051955;28;20188;-77
2021/09/12 02:42:26;;;;;;;7.05;2.00;;;;;22.30;101594.00;;;;5052043;28;20223;-77
2021/09/12 02:44:53;;;;;;;6.00;2.60;;;;;22.30;101591.00;;;;5057673;28;20199;-77
2021/09/12 02:47:21;;;;;;;4.45;2.25;;;;;22.30;101597.00;;;;5058876;28;20199;-77
2021/09/12 02:49:48;;;;;;;3.70;2.10;;;;;22.30;101597.00;;;;5049813;28;20195;-76
2021/09/12 02:52:16;;;;;;;3.22;2.30;;;;;22.20;101591.00;;;;5050675;28;20202;-77
2021/09/12 02:54:44;;;;;;;6.90;2.83;;;;;22.20;101593.00;;;;5067280;28;20191;-77
2021/09/12 02:57:11;;;;;;;3.60;2.10;;;;;22.20;101588.00;;;;5069624;28;20199;-76
2021/09/12 02:59:38;;;;;;;4.75;2.35;;;;;22.10;101599.00;;;;5055984;28;20954;-76
2021/09/12 03:02:05;;;;;;;6.63;2.58;;;;;22.10;101592.00;;;;5049876;28;21051;-77
2021/09/12 03:04:33;;;;;;;3.75;2.40;;;;;22.10;101588.00;;;;5056283;28;20238;-76
2021/09/12 03:07:00;;;;;;;3.45;2.33;;;;;22.00;101596.00;;;;5058330;28;20212;-77
2021/09/12 03:09:28;;;;;;;3.97;2.60;;;;;22.00;101589.00;;;;5050045;28;20203;-77
2021/09/12 03:11:56;;;;;;;5.43;3.50;;;;;22.00;101592.00;;;;5049520;28;20665;-77
2021/09/12 03:14:23;;;;;;;4.88;2.60;;;;;22.00;101596.00;;;;5049619;28;20204;-76
2021/09/12 03:16:51;;;;;;;3.95;2.97;;;;;22.00;101600.00;;;;5057632;28;20199;-76
2021/09/12 03:19:18;;;;;;;9.10;3.00;;;;;22.00;101597.00;;;;5068952;28;20198;-76
2021/09/12 03:21:45;;;;;;;3.72;2.65;;;;;21.90;101588.00;;;;5049817;28;20329;-76
2021/09/12 03:24:13;;;;;;;6.70;3.88;;;;;21.90;101588.00;;;;5050196;28;20243;-77
2021/09/12 03:26:41;;;;;;;5.03;3.10;;;;;21.90;101587.00;;;;5056081;28;20571;-77
2021/09/12 03:29:09;;;;;;;6.85;3.65;;;;;21.90;101581.00;;;;5067616;28;20214;-77
2021/09/12 03:31:36;;;;;;;5.10;2.72;;;;;21.80;101583.00;;;;5054901;28;20198;-77
2021/09/12 03:34:04;;;;;;;6.00;3.50;;;;;21.80;101580.00;;;;5069593;28;20207;-77
2021/09/12 03:36:31;;;;;;;6.68;2.95;;;;;21.80;101569.00;;;;5068387;28;20523;-76
2021/09/12 03:38:58;;;;;;;6.35;3.75;;;;;21.80;101572.00;;;;5068726;28;20239;-76
2021/09/12 03:41:25;;;;;;;8.07;2.80;;;;;21.70;101578.00;;;;5064189;28;20200;-76
2021/09/12 03:43:55;;;;;;;5.75;3.10;;;;;21.70;101575.00;;;;5049000;28;20318;-76
2021/09/12 03:46:22;;;;;;;4.75;3.28;;;;;21.70;101574.00;;;;5053539;28;20203;-76
2021/09/12 03:48:50;;;;;;;4.68;2.80;;;;;21.70;101580.00;;;;5068920;28;20385;-76
2021/09/12 03:51:17;;;;;;;6.95;3.78;;;;;21.60;101569.00;;;;5059403;28;20210;-76
2021/09/12 03:53:44;;;;;;;5.88;3.38;;;;;21.60;101573.00;;;;5054517;28;20195;-76
2021/09/12 03:56:13;;;;;;;6.75;3.22;;;;;21.60;101569.00;;;;5064175;28;20195;-76
2021/09/12 03:58:40;;;;;;;4.55;2.83;;;;;21.50;101576.00;;;;5057578;28;20206;-76
2021/09/12 04:01:08;;;;;;;4.90;2.88;;;;;21.50;101586.00;;;;5054362;28;20187;-76
2021/09/12 04:03:36;;;;;;;5.60;3.75;;;;;21.50;101588.00;;;;5067914;28;20219;-76
2021/09/12 04:06:03;;;;;;;5.45;3.40;;;;;21.50;101584.00;;;;5063267;28;20195;-76
2021/09/12 04:08:31;;;;;;;6.65;3.70;;;;;21.40;101586.00;;;;5048829;28;20204;-76
2021/09/12 04:10:58;;;;;;;7.80;3.42;;;;;21.40;101590.00;;;;5048128;28;20188;-76
2021/09/12 04:13:25;;;;;;;5.00;3.17;;;;;21.40;101577.00;;;;5049139;28;20212;-77
2021/09/12 04:15:52;;;;;;;4.50;3.35;;;;;21.30;101580.00;;;;5048812;28;20200;-76
2021/09/12 04:18:21;;;;;;;6.35;3.30;;;;;21.30;101572.00;;;;5057721;28;20187;-76
2021/09/12 04:20:48;;;;;;;7.65;3.35;;;;;21.30;101578.00;;;;5048250;28;20565;-77
2021/09/12 04:23:15;;;;;;;4.65;3.05;;;;;21.20;101578.00;;;;5048325;28;20223;-77
2021/09/12 04:25:42;;;;;;;5.40;3.83;;;;;21.20;101581.00;;;;5048626;28;20195;-77
2021/09/12 04:28:10;;;;;;;6.60;3.58;;;;;21.20;101582.00;;;;5047899;28;20568;-76
2021/09/12 04:30:37;;;;;;;7.82;3.83;;;;;21.20;101585.00;;;;5048802;28;20195;-77
2021/09/12 04:33:04;;;;;;;7.00;3.50;;;;;21.10;101579.00;;;;5048881;28;20204;-77
2021/09/12 04:35:33;;;;;;;6.05;3.70;;;;;21.10;101583.00;;;;5048057;28;20211;-76
2021/09/12 04:38:01;;;;;;;4.75;3.53;;;;;21.10;101587.00;;;;5047216;28;20219;-76
2021/09/12 04:40:29;;;;;;;7.53;3.85;;;;;21.00;101592.00;;;;5047566;28;20202;-76
2021/09/12 04:42:56;;;;;;;5.38;3.83;;;;;21.00;101599.00;;;;5047824;28;20198;-76
2021/09/12 04:45:24;;;;;;;5.90;3.78;;;;;21.00;101600.00;;;;5048293;28;20669;-76
2021/09/12 04:47:51;;;;;;;5.78;3.58;;;;;21.00;101599.00;;;;5047325;28;20200;-76
2021/09/12 04:50:19;;;;;;;5.28;3.30;;;;;20.90;101602.00;;;;5047998;28;20719;-77
2021/09/12 04:52:48;;;;;;;5.47;3.58;;;;;20.90;101605.00;;;;5048385;28;20203;-77
2021/09/12 04:55:15;;;;;;;6.35;3.85;;;;;20.90;101597.00;;;;5068282;28;20248;-77
2021/09/12 04:57:44;;;;;;;6.72;3.92;;;;;20.90;101600.00;;;;5067683;28;20191;-77
2021/09/12 05:00:12;;;;;;;8.88;4.03;;;;;20.80;101598.00;;;;5050758;28;20211;-77
2021/09/12 05:02:40;;;;;;;7.25;3.63;;;;;20.90;101599.00;;;;5049475;28;20211;-77
2021/09/12 05:05:08;;;;;;;6.07;4.00;;;;;20.80;101599.00;;;;5050698;28;20233;-77
2021/09/12 05:07:36;;;;;;;6.20;3.80;;;;;20.80;101603.00;;;;5050961;28;20207;-76
2021/09/12 05:10:05;;;;;;;6.80;3.88;;;;;20.80;101598.00;;;;5053980;28;20198;-76
2021/09/12 05:12:32;;;;;;;7.80;3.83;;;;;20.80;101600.00;;;;5056353;28;20194;-76
2021/09/12 05:14:59;;;;;;;7.85;4.43;;;;;20.80;101599.00;;;;5066113;28;20207;-76
2021/09/12 05:17:27;;;;;;;6.15;4.45;;;;;20.80;101604.00;;;;5055562;28;20196;-76
2021/09/12 05:19:54;;;;;;;5.53;3.85;;;;;20.80;101612.00;;;;5054448;28;20203;-76
2021/09/12 05:22:21;;;;;;;8.57;4.40;;;;;20.80;101603.00;;;;5066111;28;20220;-77
2021/09/12 05:24:48;;;;;;;7.05;4.57;;;;;20.80;101601.00;;;;5056226;28;20235;-76
2021/09/12 05:27:17;;;;;;;7.25;4.75;;;;;20.80;101609.00;;;;5057958;28;20618;-76
2021/09/12 05:29:44;;;;;;;6.88;4.15;;;;;20.80;101600.00;;;;5054915;28;20207;-77
2021/09/12 05:32:12;;;;;;;7.18;4.82;;;;;20.80;101595.00;;;;5063543;28;20191;-76
2021/09/12 05:34:39;;;;;;;6.40;4.57;;;;;20.80;101597.00;;;;5054596;28;20211;-76
2021/09/12 05:37:06;;;;;;;5.40;4.43;;;;;20.80;101600.00;;;;5061694;28;20202;-76
2021/09/12 05:39:35;;;;;;;7.95;5.10;;;;;20.80;101608.00;;;;5057646;28;20839;-76
2021/09/12 05:42:02;;;;;;;8.77;5.22;;;;;20.80;101616.00;;;;5051291;28;20681;-76
2021/09/12 05:44:31;;;;;;;8.35;4.53;;;;;20.80;101617.00;;;;5050618;28;20701;-76
2021/09/12 05:47:00;;;;;;;6.88;5.07;;;;;20.80;101614.00;;;;5051022;28;20196;-76
2021/09/12 05:49:27;;;;;;;9.88;5.53;;;;;20.80;101613.00;;;;5051517;28;20681;-77
2021/09/12 05:51:54;;;;;;;9.90;5.97;;;;;20.80;101605.00;;;;5062259;28;20210;-76
2021/09/12 05:54:22;;;;;;;8.35;4.72;;;;;20.80;101601.00;;;;5064357;28;20582;-76
2021/09/12 05:56:49;;;;;;;10.10;5.85;;;;;20.80;101607.00;;;;5050993;28;20199;-76
2021/09/12 05:59:17;;;;;;;10.85;5.82;;;;;20.90;101604.00;;;;5050557;28;20665;-76
2021/09/12 06:01:46;;;;;;;9.45;6.10;;;;;20.80;101609.00;;;;5051313;28;20210;-76
2021/09/12 06:04:13;;;;;;;8.75;6.28;;;;;20.90;101612.00;;;;5056050;28;20211;-76
2021/09/12 06:06:40;;;;;;;8.52;5.75;;;;;20.90;101609.00;;;;5053069;28;20208;-76
2021/09/12 06:09:07;;;;;;;9.73;6.47;;;;;20.90;101605.00;;;;5053909;28;20206;-76
2021/09/12 06:11:35;;;;;;;9.90;6.00;;;;;20.90;101602.00;;;;5058222;28;20199;-76
2021/09/12 06:14:03;;;;;;;8.48;6.32;;;;;20.90;101604.00;;;;5056663;28;20195;-77
2021/09/12 06:16:31;;;;;;;10.35;6.28;;;;;20.90;101608.00;;;;5057526;28;20199;-79
2021/09/12 06:18:59;;;;;;;10.38;7.00;;;;;21.00;101615.00;;;;5058042;28;20574;-79
2021/09/12 06:21:27;;;;;;;9.02;6.35;;;;;21.00;101616.00;;;;5049189;28;20207;-79
2021/09/12 06:23:54;;;;;;;9.85;5.38;;;;;21.00;101609.00;;;;5052844;28;20220;-79
2021/09/12 06:26:21;;;;;;;10.00;5.72;;;;;21.00;101620.00;;;;5053414;28;20289;-79
2021/09/12 06:28:48;;;;;;;7.80;5.63;;;;;21.00;101626.00;;;;5061210;28;20294;-79
2021/09/12 06:31:16;;;;;;;10.45;5.60;;;;;21.10;101617.00;;;;5052973;28;20662;-78
2021/09/12 06:33:43;;;;;;;7.72;5.90;;;;;21.10;101617.00;;;;5065145;28;20206;-78
2021/09/12 06:36:12;;;;;;;9.48;6.78;;;;;21.10;101616.00;;;;5064901;28;20199;-78
2021/09/12 06:38:40;;;;;;;9.98;5.63;;;;;21.10;101614.00;;;;5051717;28;20240;-78
2021/09/12 06:41:07;;;;;;;8.38;6.05;;;;;21.10;101624.00;;;;5052659;28;20195;-78
2021/09/12 06:43:34;;;;;;;13.52;6.07;;;;;21.20;101613.00;;;;5061459;28;20199;-78
2021/09/12 06:46:01;;;;;;;12.43;6.38;;;;;21.20;101623.00;;;;5058759;28;20207;-79
2021/09/12 06:48:29;;;;;;;10.00;5.70;;;;;21.20;101621.00;;;;5055289;28;20195;-78
2021/09/12 06:50:57;;;;;;;9.10;6.18;;;;;21.20;101620.00;;;;5055204;28;20673;-79
2021/09/12 06:53:26;;;;;;;9.85;4.93;;;;;21.20;101621.00;;;;5062168;28;20398;-79
2021/09/12 06:55:53;;;;;;;8.00;5.95;;;;;21.20;101626.00;;;;5066463;28;20195;-79
2021/09/12 06:58:21;;;;;;;11.40;6.07;;;;;21.30;101633.00;;;;5061842;28;20205;-79
2021/09/12 07:00:48;;;;;;;7.18;4.88;;;;;21.30;101625.00;;;;5060988;28;20210;-80
2021/09/12 07:03:15;;;;;;;6.35;5.22;;;;;21.30;101619.00;;;;5057581;28;20198;-80
2021/09/12 07:05:43;;;;;;;8.38;5.40;;;;;21.40;101627.00;;;;5061066;28;20219;-79
2021/09/12 07:08:10;;;;;;;8.80;6.10;;;;;21.40;101627.00;;;;5055596;28;20202;-79
2021/09/12 07:10:39;;;;;;;9.02;5.75;;;;;21.40;101634.00;;;;5060387;28;20196;-79
2021/09/12 07:13:06;;;;;;;7.55;5.57;;;;;21.50;101635.00;;;;5059110;28;20198;-79
2021/09/12 07:15:33;;;;;;;9.77;5.10;;;;;21.50;101635.00;;;;5057125;28;20207;-79
2021/09/12 07:18:01;;;;;;;7.47;5.28;;;;;21.50;101631.00;;;;5067666;28;20587;-79
2021/09/12 07:20:28;;;;;;;8.40;5.43;;;;;21.60;101632.00;;;;5059602;28;20203;-80
2021/09/12 07:22:55;;;;;;;9.68;4.85;;;;;21.60;101634.00;;;;5058795;28;20214;-80
2021/09/12 07:25:23;;;;;;;8.57;5.22;;;;;21.60;101637.00;;;;5056562;28;20693;-79
2021/09/12 07:27:51;;;;;;;9.73;5.38;;;;;21.60;101636.00;;;;5059786;28;20215;-79
2021/09/12 07:30:22;;;;;;;7.35;5.05;;;;;21.60;101638.00;;;;5066001;28;20206;-79
2021/09/12 07:32:50;;;;;;;8.63;5.63;;;;;21.60;101635.00;;;;5059358;28;20213;-79
2021/09/12 07:35:18;;;;;;;10.55;5.45;;;;;21.70;101633.00;;;;5055567;28;20215;-78
2021/09/12 07:37:45;;;;;;;8.73;5.90;;;;;21.70;101629.00;;;;5059060;28;20235;-78
2021/09/12 07:40:13;;;;;;;8.32;4.88;;;;;21.70;101631.00;;;;5054654;28;20203;-79
2021/09/12 07:42:42;;;;;;;9.23;4.97;;;;;21.80;101634.00;;;;5059181;28;20214;-79
2021/09/12 07:45:12;;;;;;;7.60;4.95;;;;;21.70;101628.00;;;;5054133;28;20259;-79
2021/09/12 07:47:39;;;;;;;6.85;5.10;;;;;21.80;101634.00;;;;5050385;28;20203;-78
2021/09/12 07:50:07;;;;;;;7.68;4.90;;;;;21.80;101635.00;;;;5053367;28;20200;-78
2021/09/12 07:52:35;;;;;;;8.70;5.00;;;;;21.80;101630.00;;;;5048500;28;20222;-78
2021/09/12 07:55:02;;;;;;;7.65;5.07;;;;;21.80;101634.00;;;;5062821;28;20187;-79
2021/09/12 07:57:29;;;;;;;7.85;5.43;;;;;21.90;101645.00;;;;5054232;28;20199;-79
2021/09/12 07:59:57;;;;;;;5.30;4.43;;;;;21.90;101650.00;;;;5048493;28;20192;-78
2021/09/12 08:02:26;;;;;;;9.73;5.05;;;;;21.90;101648.00;;;;5049021;28;20246;-78
2021/09/12 08:04:53;;;;;;;10.57;5.82;;;;;22.00;101663.00;;;;5048977;28;20580;-77
2021/09/12 08:07:20;;;;;;;9.38;5.72;;;;;22.00;101666.00;;;;5047764;28;20222;-77
2021/09/12 08:09:47;;;;;;;9.25;5.20;;;;;22.00;101666.00;;;;5053639;28;20204;-78
2021/09/12 08:12:15;;;;;;;10.88;6.05;;;;;22.10;101665.00;;;;5047970;28;20203;-77
2021/09/12 08:14:42;;;;;;;9.35;5.35;;;;;22.10;101664.00;;;;5046457;28;20206;-77
2021/09/12 08:17:09;;;;;;;11.30;5.55;;;;;22.10;101658.00;;;;5046395;28;20192;-78
2021/09/12 08:19:38;;;;;;;9.05;5.63;;;;;22.10;101666.00;;;;5047594;28;20202;-78
2021/09/12 08:22:05;;;;;;;7.38;4.93;;;;;22.10;101671.00;;;;5047822;28;20212;-78
2021/09/12 08:24:33;;;;;;;8.07;5.18;;;;;22.20;101673.00;;;;5049508;28;20233;-78
2021/09/12 08:27:00;;;;;;;16.27;6.30;;;;;22.20;101672.00;;;;5055463;28;20880;-79
2021/09/12 08:29:27;;;;;;;10.10;5.32;;;;;22.20;101670.00;;;;5051150;28;20217;-79
2021/09/12 08:31:55;;;;;;;8.77;5.22;;;;;22.20;101672.00;;;;5057243;28;20581;-76
2021/09/12 08:34:23;;;;;;;8.75;5.50;;;;;22.30;101677.00;;;;5076449;28;20257;-76
2021/09/12 08:36:52;;;;;;;9.98;5.22;;;;;22.30;101687.00;;;;5067436;28;20213;-77
2021/09/12 08:39:20;;;;;;;10.85;5.55;;;;;22.30;101682.00;;;;5063581;28;20227;-78
2021/09/12 08:41:47;;;;;;;11.57;5.75;;;;;22.30;101687.00;;;;5067747;28;20188;-77
2021/09/12 08:44:19;;;;;;;9.13;5.75;;;;;22.30;101689.00;;;;5047753;28;20635;-78
2021/09/12 08:46:47;;;;;;;11.45;6.05;;;;;22.40;101687.00;;;;5060457;28;20206;-77
2021/09/12 08:49:16;;;;;;;12.32;6.43;;;;;22.40;101689.00;;;;5064700;28;20213;-78
2021/09/12 08:51:44;;;;;;;9.25;5.72;;;;;22.40;101689.00;;;;5056738;28;20206;-78
2021/09/12 08:54:12;;;;;;;11.15;6.90;;;;;22.40;101692.00;;;;5063189;28;20203;-78
2021/09/12 08:56:40;;;;;;;12.45;6.07;;;;;22.40;101688.00;;;;5058203;28;20195;-79
2021/09/12 08:59:23;;;;;;;10.85;6.88;;;;;22.30;101692.00;;;;5060841;28;20206;-78
2021/09/12 09:01:57;;;;;;;8.90;6.40;;;;;22.40;101686.00;;;;5059877;28;20206;-78
2021/09/12 09:04:27;;;;;;;12.27;5.60;;;;;22.50;101694.00;;;;5055506;28;20195;-79
2021/09/12 09:07:03;;;;;;;10.98;6.40;;;;;22.50;101696.00;;;;5068930;28;20287;-79
2021/09/12 09:09:46;;;;;;;8.30;5.50;;;;;22.50;101690.00;;;;5060669;28;20189;-80
2021/09/12 09:12:29;;;;;;;10.23;6.00;;;;;22.50;101697.00;;;;5066676;28;20226;-78
2021/09/12 09:15:12;;;;;;;11.93;6.57;;;;;22.60;101692.00;;;;5055098;28;20198;-79
2021/09/12 09:17:43;;;;;;;10.93;5.82;;;;;22.70;101692.00;;;;5063225;28;20199;-79
2021/09/12 09:20:13;;;;;;;9.43;6.35;;;;;22.80;101698.00;;;;5054911;28;20229;-79
2021/09/12 09:22:42;;;;;;;13.68;5.88;;;;;22.80;101694.00;;;;5055988;28;20649;-78
2021/09/12 09:25:19;;;;;;;14.07;6.43;;;;;22.80;101693.00;;;;5054653;28;20226;-79
2021/09/12 09:28:07;;;;;;;15.75;7.22;;;;;22.80;101696.00;;;;5054003;28;20230;-79
2021/09/12 09:30:38;;;;;;;17.05;6.70;;;;;23.00;101691.00;;;;5052180;28;20203;-79
2021/09/12 09:33:15;;;;;;;11.23;6.00;;;;;22.90;101687.00;;;;5061026;28;20202;-79
2021/09/12 09:35:55;;;;;;;15.20;6.72;;;;;22.90;101689.00;;;;5057569;28;20196;-79
2021/09/12 09:38:24;;;;;;;10.93;6.28;;;;;23.10;101686.00;;;;5073284;28;20230;-79
2021/09/12 09:41:14;;;;;;;15.48;6.90;;;;;23.00;101686.00;;;;5067045;28;20246;-79
2021/09/12 09:43:47;;;;;;;14.90;8.00;;;;;23.10;101694.00;;;;5051744;28;20199;-79
2021/09/12 09:46:28;;;;;;;15.85;8.18;;;;;23.10;101690.00;;;;5053047;28;20229;-79
2021/09/12 09:48:58;;;;;;;12.52;8.73;;;;;23.30;101687.00;;;;5053039;28;20187;-80
2021/09/12 09:51:25;;;;;;;15.02;7.85;;;;;23.30;101682.00;;;;5052357;28;20203;-79
2021/09/12 09:53:55;;;;;;;13.02;7.57;;;;;23.30;101687.00;;;;5059887;28;20195;-78
2021/09/12 09:56:25;;;;;;;9.75;7.07;;;;;23.30;101685.00;;;;5057477;28;20556;-77
2021/09/12 09:58:53;;;;;;;13.70;7.78;;;;;23.40;101691.00;;;;5063565;28;20211;-79
2021/09/12 10:01:21;;;;;;;12.63;7.70;;;;;23.40;101685.00;;;;5056109;28;20672;-78
2021/09/12 10:03:50;;;;;;;12.30;7.57;;;;;23.50;101689.00;;;;5057419;28;20242;-78
2021/09/12 10:06:18;;;;;;;13.25;8.13;;;;;23.60;101693.00;;;;5050570;28;20289;-79
2021/09/12 10:08:46;;;;;;;16.73;9.15;;;;;23.60;101691.00;;;;5051214;28;20196;-81
2021/09/12 10:11:14;;;;;;;14.02;8.18;;;;;23.60;101700.00;;;;5064801;28;20205;-77
2021/09/12 10:13:45;;;;;;;17.02;9.02;;;;;23.60;101694.00;;;;5058392;28;20199;-79
2021/09/12 10:16:14;;;;;;;13.18;8.15;;;;;23.60;101697.00;;;;5058753;28;20214;-79
2021/09/12 10:18:42;;;;;;;17.27;9.55;;;;;23.70;101704.00;;;;5057028;28;20692;-78
2021/09/12 10:21:25;;;;;;;12.65;8.80;;;;;23.60;101700.00;;;;5062108;28;20264;-78
2021/09/12 10:24:02;;;;;;;15.25;9.10;;;;;23.70;101697.00;;;;5050304;28;20199;-78
2021/09/12 10:26:31;;;;;;;13.05;9.25;;;;;23.80;101704.00;;;;5051421;28;20304;-78
2021/09/12 10:29:00;;;;;;;14.18;9.13;;;;;23.80;101711.00;;;;5050994;28;20317;-78
2021/09/12 10:31:36;;;;;;;12.27;9.13;;;;;23.80;101705.00;;;;5050567;28;20195;-78
2021/09/12 10:34:09;;;;;;;15.60;9.95;;;;;23.80;101708.00;;;;5050383;28;20208;-79
2021/09/12 10:36:38;;;;;;;13.90;9.23;;;;;23.90;101703.00;;;;5050254;28;20208;-79
2021/09/12 10:39:35;;;;;;;14.40;9.02;;;;;23.80;101703.00;;;;5050431;28;20227;-79
2021/09/12 10:42:20;;;;;;;13.63;9.32;;;;;23.90;101703.00;;;;5050205;28;20225;-78
2021/09/12 10:45:20;;;;;;;15.15;9.18;;;;;23.90;101708.00;;;;5050476;28;20207;-79
2021/09/12 10:47:47;;;;;;;12.68;9.05;;;;;24.00;101694.00;;;;5056234;28;20241;-79
2021/09/12 10:50:45;;;;;;;13.50;9.57;;;;;24.00;101696.00;;;;5070042;28;20195;-78
2021/09/12 10:53:12;;;;;;;14.45;9.23;;;;;24.20;101696.00;;;;5008337;28;20189;-78
2021/09/12 10:56:02;;;;;;;15.05;10.30;;;;;24.30;101693.00;;;;5036304;28;20211;-78
2021/09/12 10:58:30;;;;;;;15.07;10.85;;;;;24.50;101696.00;;;;5050066;28;20580;-78
2021/09/12 11:01:01;;;;;;;14.25;10.55;;;;;24.60;101695.00;;;;5060440;28;20222;-79
2021/09/12 11:03:30;;;;;;;17.77;11.00;;;;;24.70;101689.00;;;;5069775;28;20199;-79
2021/09/12 11:05:57;;;;;;;16.40;11.60;;;;;24.80;101683.00;;;;5070276;28;20699;-79
2021/09/12 11:08:35;;;;;;;15.45;11.18;;;;;24.90;101693.00;;;;5068562;28;20214;-79
2021/09/12 11:11:03;;;;;;;17.00;11.18;;;;;25.00;101692.00;;;;5049972;28;20673;-79
2021/09/12 11:13:31;;;;;;;12.18;9.60;;;;;25.10;101694.00;;;;5049900;28;20199;-79
2021/09/12 11:16:10;;;;;;;12.50;9.18;;;;;25.10;101690.00;;;;5067648;28;20195;-78
2021/09/12 11:18:48;;;;;;;13.52;9.05;;;;;25.20;101683.00;;;;5065307;28;20301;-79
2021/09/12 11:21:32;;;;;;;13.25;10.05;;;;;25.20;101685.00;;;;5069286;28;20198;-79
2021/09/12 11:24:02;;;;;;;14.88;11.18;;;;;25.40;101687.00;;;;5055907;28;20199;-79
2021/09/12 11:26:37;;;;;;;16.30;10.95;;;;;25.60;101680.00;;;;5049784;28;20223;-79
2021/09/12 11:29:07;;;;;;;15.15;9.80;;;;;25.70;101677.00;;;;5049539;28;20246;-79
2021/09/12 11:31:37;;;;;;;14.18;10.27;;;;;25.80;101675.00;;;;5048769;28;20203;-78
2021/09/12 11:34:05;;;;;;;12.10;9.68;;;;;26.00;101682.00;;;;5051587;28;20239;-78
2021/09/12 11:36:47;;;;;;;12.63;10.10;;;;;26.10;101686.00;;;;5069231;28;20207;-79
2021/09/12 11:39:15;;;;;;;15.00;11.20;;;;;26.30;101688.00;;;;5061782;28;20227;-79
2021/09/12 11:41:44;;;;;;;13.10;10.02;;;;;26.40;101692.00;;;;5048636;28;20199;-79
2021/09/12 11:44:11;;;;;;;12.50;10.68;;;;;26.50;101682.00;;;;5049175;28;20776;-79
2021/09/12 11:46:48;;;;;;;14.30;10.35;;;;;26.50;101681.00;;;;5048685;28;20248;-79
2021/09/12 11:49:15;;;;;;;15.60;10.07;;;;;26.60;101677.00;;;;5049494;28;20195;-79
2021/09/12 11:51:47;;;;;;;16.33;10.68;;;;;26.60;101684.00;;;;5049729;28;20214;-79
2021/09/12 11:54:18;;;;;;;16.95;9.68;;;;;26.60;101684.00;;;;5055517;28;20206;-79
2021/09/12 11:56:53;;;;;;;14.88;10.88;;;;;26.60;101677.00;;;;5069157;28;20199;-79
2021/09/12 11:59:20;;;;;;;13.77;9.82;;;;;26.60;101679.00;;;;5053900;28;20290;-79
2021/09/12 12:01:51;;;;;;;15.23;10.77;;;;;26.50;101682.00;;;;5049220;28;20601;-79
2021/09/12 12:04:19;;;;;;;12.20;10.07;;;;;26.50;101684.00;;;;5049528;28;20253;-79
2021/09/12 12:06:47;;;;;;;13.75;10.90;;;;;26.50;101683.00;;;;5048488;28;20233;-79
2021/09/12 12:09:17;;;;;;;16.17;11.20;;;;;26.50;101680.00;;;;5057264;28;20210;-79
2021/09/12 12:11:46;;;;;;;11.13;8.88;;;;;26.40;101680.00;;;;5069354;28;20199;-79
2021/09/12 12:14:21;;;;;;;12.35;10.07;;;;;26.40;101679.00;;;;5068341;28;20675;-80